createdAt,value
2018-04-26T03:22:10.202Z,69.41
2018-04-26T03:23:10.205Z,69.41
2018-04-26T03:24:10.192Z,69.27
2018-04-26T03:25:10.183Z,69.31
2018-04-26T03:26:10.166Z,69.41
2018-04-26T03:27:10.160Z,68.93
2018-04-26T03:28:10.155Z,69.12
2018-04-26T03:29:10.146Z,68.07
2018-04-26T03:30:10.144Z,67.53
2018-04-26T03:31:10.171Z,67.88
2018-04-26T03:32:10.151Z,67.97
2018-04-26T03:33:10.149Z,67.97
2018-04-26T03:34:10.132Z,67.88
2018-04-26T03:35:18.885Z,67.59
2018-04-26T03:37:03.572Z,67.69
2018-04-26T03:38:03.543Z,67.97
2018-04-26T03:39:56.978Z,68.80
2018-04-26T03:40:56.934Z,68.26
2018-04-26T03:41:56.936Z,67.59
2018-04-26T03:42:56.933Z,67.88
2018-04-26T03:43:56.951Z,68.26
2018-04-26T03:44:56.926Z,69.02
2018-04-26T03:45:56.932Z,69.18
2018-04-26T03:46:56.941Z,68.84
2018-04-26T03:47:56.932Z,67.88
2018-04-26T03:48:56.943Z,67.21
2018-04-26T03:49:56.941Z,67.69
2018-04-26T03:50:56.919Z,67.88
2018-04-26T03:51:56.915Z,68.74
2018-04-26T03:52:56.912Z,68.64
2018-04-26T03:53:56.904Z,68.35
2018-04-26T03:54:56.910Z,68.80
2018-04-26T03:55:56.905Z,68.74
2018-04-26T03:56:56.923Z,68.51
2018-04-26T03:57:56.900Z,68.90
2018-04-26T04:00:17.952Z,68.64
2018-04-26T04:01:17.952Z,68.80
2018-04-26T04:02:17.939Z,68.90
2018-04-26T04:03:17.930Z,69.27
2018-04-26T04:04:17.938Z,68.70
2018-04-26T04:05:18.020Z,68.74
2018-04-26T04:06:17.927Z,67.78
2018-04-26T04:07:17.929Z,67.78
2018-04-26T04:08:17.929Z,67.40
2018-04-26T04:09:17.935Z,66.83
2018-04-26T04:10:17.921Z,66.35
2018-04-26T04:11:17.919Z,67.21
2018-04-26T04:12:17.919Z,67.40
2018-04-26T04:13:17.919Z,67.65
2018-04-26T04:14:17.907Z,67.65
2018-04-26T04:15:17.904Z,67.65
2018-04-26T04:16:17.915Z,68.13
2018-04-26T04:17:17.929Z,67.97
2018-04-26T04:18:17.914Z,66.25
2018-04-26T04:19:17.908Z,65.68
2018-04-26T04:20:17.906Z,65.87
2018-04-26T04:21:17.921Z,66.06
2018-04-26T04:22:17.892Z,65.36
2018-04-26T04:23:17.889Z,65.26
2018-04-26T04:24:17.907Z,65.74
2018-04-26T04:25:17.895Z,65.93
2018-04-26T04:26:17.886Z,65.74
2018-04-26T04:27:17.898Z,66.22
2018-04-26T04:28:17.889Z,66.50
2018-04-26T04:29:17.894Z,66.79
2018-04-26T04:30:17.905Z,67.18
2018-04-26T04:31:17.883Z,67.84
2018-04-26T04:32:17.877Z,68.32
2018-04-26T04:33:17.912Z,67.84
2018-04-26T04:34:17.869Z,66.60
2018-04-26T04:35:17.949Z,66.73
2018-04-26T04:36:17.866Z,65.68
2018-04-26T04:37:17.861Z,65.39
2018-04-26T04:38:17.865Z,65.87
2018-04-26T04:39:17.865Z,66.50
2018-04-26T04:40:17.886Z,66.44
2018-04-26T04:41:17.860Z,66.50
2018-04-26T04:42:17.888Z,66.35
2018-04-26T04:43:17.847Z,66.25
2018-04-26T04:44:17.846Z,66.16
2018-04-26T04:45:17.958Z,66.44
2018-04-26T04:46:17.842Z,65.87
2018-04-26T04:47:17.841Z,66.06
2018-04-26T04:48:17.849Z,65.87
2018-04-26T04:49:17.842Z,66.54
2018-04-26T04:50:17.853Z,66.83
2018-04-26T04:51:17.849Z,67.08
2018-04-26T04:52:17.849Z,67.46
2018-04-26T04:53:17.846Z,68.26
2018-04-26T04:54:17.851Z,66.92
2018-04-26T04:55:17.848Z,65.81
2018-04-26T04:56:17.831Z,65.61
2018-04-26T04:57:17.829Z,65.33
2018-04-26T04:58:17.839Z,65.61
2018-04-26T04:59:17.840Z,65.81
2018-04-26T05:00:17.835Z,66.00
2018-04-26T05:01:17.850Z,65.61
2018-04-26T05:02:17.870Z,66.00
2018-04-26T05:03:17.850Z,65.90
2018-04-26T05:04:17.851Z,65.81
2018-04-26T05:05:17.860Z,64.98
2018-04-26T05:06:26.500Z,64.22
2018-04-26T05:08:11.348Z,63.76
2018-04-26T05:09:11.424Z,62.36
2018-04-26T05:10:11.305Z,61.50
2018-04-26T05:11:11.344Z,61.66
2018-04-26T05:12:11.281Z,61.31
2018-04-26T05:13:11.361Z,60.00
2018-04-26T05:14:11.293Z,58.11
2018-04-26T05:15:11.332Z,56.70
2018-04-26T05:16:11.476Z,58.30
2018-04-26T05:17:11.523Z,57.28
2018-04-26T05:18:11.325Z,58.01
2018-04-26T05:19:11.339Z,58.75
2018-04-26T05:20:11.406Z,58.20
2018-04-26T05:21:11.343Z,58.39
2018-04-26T05:22:11.427Z,58.49
2018-04-26T05:23:11.375Z,55.96
2018-04-26T05:24:11.416Z,55.96
2018-04-26T05:25:11.376Z,54.71
2018-04-26T05:26:11.424Z,54.64
2018-04-26T05:27:11.415Z,54.13
2018-04-26T05:28:11.444Z,53.87
2018-04-26T05:29:11.441Z,54.85
2018-04-26T05:30:11.456Z,56.57
2018-04-26T05:31:11.480Z,55.93
2018-04-26T05:32:11.452Z,55.62
2018-04-26T05:33:11.488Z,55.16
2018-04-26T05:34:11.496Z,53.82
2018-04-26T05:35:11.497Z,53.72
2018-04-26T05:36:11.500Z,53.36
2018-04-26T05:37:11.502Z,53.50
2018-04-26T05:38:11.509Z,55.87
2018-04-26T05:39:11.527Z,56.52
2018-04-26T05:40:11.554Z,58.31
2018-04-26T05:41:11.532Z,58.86
2018-04-26T05:42:11.563Z,60.10
2018-04-26T05:43:11.571Z,60.00
2018-04-26T05:44:11.575Z,60.00
2018-04-26T05:45:11.573Z,60.03
2018-04-26T05:46:11.931Z,59.23
2018-04-26T05:47:11.611Z,59.33
2018-04-26T05:48:11.593Z,59.43
2018-04-26T05:49:11.628Z,59.81
2018-04-26T05:50:11.617Z,59.91
2018-04-26T05:51:11.636Z,60.16
2018-04-26T05:52:11.632Z,60.26
2018-04-26T05:53:11.635Z,60.26
2018-04-26T05:54:12.251Z,59.66
2018-04-26T05:55:11.646Z,60.90
2018-04-26T05:56:11.642Z,60.83
2018-04-26T05:57:11.642Z,60.16
2018-04-26T05:58:11.659Z,60.16
2018-04-26T05:59:11.695Z,60.71
2018-04-26T06:00:11.669Z,61.28
2018-04-26T06:01:11.656Z,60.90
2018-04-26T06:02:11.645Z,60.13
2018-04-26T06:03:11.644Z,60.55
2018-04-26T06:04:11.684Z,59.84
2018-04-26T06:05:11.645Z,60.33
2018-04-26T06:06:11.649Z,59.47
2018-04-26T06:07:11.651Z,59.66
2018-04-26T06:08:11.669Z,60.13
2018-04-26T06:09:11.660Z,59.84
2018-04-26T06:10:11.658Z,59.84
2018-04-26T06:11:11.675Z,60.13
2018-04-26T06:12:11.656Z,59.56
2018-04-26T06:13:11.666Z,59.94
2018-04-26T06:14:11.689Z,59.75
2018-04-26T06:15:11.664Z,60.10
2018-04-26T06:16:11.670Z,60.23
2018-04-26T06:17:11.745Z,59.47
2018-04-26T06:18:11.684Z,59.75
2018-04-26T06:19:11.654Z,59.72
2018-04-26T06:20:11.649Z,60.01
2018-04-26T06:21:11.647Z,60.23
2018-04-26T06:22:11.654Z,59.63
2018-04-26T06:23:11.672Z,59.72
2018-04-26T06:24:11.674Z,60.49
2018-04-26T06:25:11.706Z,61.25
2018-04-26T06:26:11.652Z,61.92
2018-04-26T06:27:11.642Z,60.58
2018-04-26T06:28:11.650Z,60.39
2018-04-26T06:29:11.649Z,61.25
2018-04-26T06:30:11.651Z,60.33
2018-04-26T06:31:11.746Z,59.91
2018-04-26T06:32:11.661Z,60.87
2018-04-26T06:33:20.323Z,60.58
2018-04-26T06:35:05.195Z,60.68
2018-04-26T06:36:05.039Z,61.16
2018-04-26T06:37:05.041Z,60.68
2018-04-26T06:38:05.061Z,60.39
2018-04-26T06:39:05.063Z,60.39
2018-04-26T06:40:05.017Z,60.30
2018-04-26T06:41:05.025Z,60.27
2018-04-26T06:42:05.021Z,61.13
2018-04-26T06:43:05.023Z,60.68
2018-04-26T06:44:05.012Z,60.96
2018-04-26T06:45:14.742Z,60.77
2018-04-26T06:46:58.470Z,60.64
2018-04-26T06:47:58.424Z,60.30
2018-04-26T06:48:58.421Z,59.47
2018-04-26T06:49:58.438Z,59.08
2018-04-26T06:50:58.445Z,59.15
2018-04-26T06:53:20.513Z,59.08
2018-04-26T06:54:20.535Z,59.24
2018-04-26T06:55:20.484Z,59.24
2018-04-26T06:56:20.482Z,59.24
2018-04-26T06:57:20.485Z,59.81
2018-04-26T06:58:20.481Z,59.91
2018-04-26T06:59:20.477Z,59.53
2018-04-26T07:00:20.538Z,58.95
2018-04-26T07:01:20.486Z,59.91
2018-04-26T07:02:20.486Z,60.30
2018-04-26T07:03:20.496Z,60.68
2018-04-26T07:04:20.467Z,59.72
2018-04-26T07:05:20.471Z,60.87
2018-04-26T07:06:20.467Z,59.72
2018-04-26T07:07:20.461Z,59.59
2018-04-26T07:08:20.463Z,60.07
2018-04-26T07:09:20.492Z,60.84
2018-04-26T07:10:21.994Z,61.16
2018-04-26T07:11:20.457Z,60.20
2018-04-26T07:12:20.457Z,59.63
2018-04-26T07:13:20.453Z,59.24
2018-04-26T07:14:20.469Z,59.53
2018-04-26T07:15:20.466Z,60.01
2018-04-26T07:16:20.463Z,59.44
2018-04-26T07:17:20.448Z,58.86
2018-04-26T07:18:20.450Z,60.01
2018-04-26T07:19:20.447Z,59.59
2018-04-26T07:20:29.109Z,60.20
2018-04-26T07:22:21.550Z,60.64
2018-04-26T07:23:22.519Z,60.84
2018-04-26T07:25:07.271Z,60.07
2018-04-26T07:26:07.271Z,60.07
2018-04-26T07:27:07.234Z,59.63
2018-04-26T07:28:07.255Z,59.15
2018-04-26T07:29:07.251Z,59.88
2018-04-26T07:30:07.251Z,59.53
2018-04-26T07:31:07.254Z,59.44
2018-04-26T07:32:07.226Z,59.81
2018-04-26T07:33:07.224Z,59.15
2018-04-26T07:34:07.228Z,58.41
2018-04-26T07:35:07.225Z,58.58
2018-04-26T07:36:07.244Z,58.86
2018-04-26T07:37:07.219Z,58.80
2018-04-26T07:38:07.233Z,59.05
2018-04-26T07:39:07.219Z,58.70
2018-04-26T07:40:07.221Z,58.29
2018-04-26T07:41:07.218Z,58.22
2018-04-26T07:42:07.236Z,58.41
2018-04-26T07:43:07.222Z,58.61
2018-04-26T07:44:07.212Z,58.70
2018-04-26T07:45:07.219Z,59.44
2018-04-26T07:46:07.209Z,58.89
2018-04-26T07:47:07.213Z,59.34
2018-04-26T07:48:07.211Z,58.98
2018-04-26T07:49:07.239Z,58.61
2018-04-26T07:50:07.211Z,58.32
2018-04-26T07:51:07.217Z,58.41
2018-04-26T07:52:07.216Z,59.27
2018-04-26T07:53:08.849Z,58.98
2018-04-26T07:54:07.241Z,58.61
2018-04-26T07:55:07.204Z,57.84
2018-04-26T07:56:07.228Z,58.12
2018-04-26T07:57:07.249Z,58.22
2018-04-26T07:58:07.209Z,58.51
2018-04-26T07:59:07.193Z,58.70
2018-04-26T08:00:07.200Z,58.70
2018-04-26T08:01:07.194Z,58.61
2018-04-26T08:02:07.195Z,58.51
2018-04-26T08:03:07.198Z,58.32
2018-04-26T08:04:07.200Z,58.15
2018-04-26T08:05:15.853Z,58.34
2018-04-26T08:07:00.608Z,58.70
2018-04-26T08:08:00.589Z,58.70
2018-04-26T08:09:00.594Z,59.08
2018-04-26T08:10:00.586Z,58.03
2018-04-26T08:11:00.591Z,58.70
2018-04-26T08:12:00.592Z,58.80
2018-04-26T08:13:00.592Z,58.61
2018-04-26T08:14:00.602Z,59.56
2018-04-26T08:15:00.612Z,59.56
2018-04-26T08:16:00.596Z,59.94
2018-04-26T08:17:00.586Z,59.66
2018-04-26T08:18:00.588Z,59.75
2018-04-26T08:19:00.590Z,59.66
2018-04-26T08:20:00.585Z,58.80
2018-04-26T08:21:00.588Z,58.73
2018-04-26T08:22:00.583Z,58.34
2018-04-26T08:23:00.593Z,58.73
2018-04-26T08:24:00.593Z,58.51
2018-04-26T08:25:00.655Z,58.80
2018-04-26T08:26:00.587Z,58.92
2018-04-26T08:27:00.585Z,58.73
2018-04-26T08:28:00.580Z,58.73
2018-04-26T08:29:00.579Z,58.54
2018-04-26T08:30:00.579Z,58.80
2018-04-26T08:31:00.616Z,59.47
2018-04-26T08:32:00.629Z,59.27
2018-04-26T08:33:00.581Z,59.18
2018-04-26T08:34:00.580Z,58.70
2018-04-26T08:35:00.575Z,58.70
2018-04-26T08:36:00.579Z,59.44
2018-04-26T08:37:00.589Z,59.47
2018-04-26T08:38:00.585Z,60.30
2018-04-26T08:39:00.600Z,60.80
2018-04-26T08:40:00.580Z,60.77
2018-04-26T08:41:00.601Z,60.77
2018-04-26T08:42:00.571Z,60.39
2018-04-26T08:43:00.600Z,60.52
2018-04-26T08:44:00.600Z,59.94
2018-04-26T08:45:00.570Z,58.98
2018-04-26T08:46:00.571Z,58.80
2018-04-26T08:47:00.563Z,58.61
2018-04-26T08:48:00.564Z,57.24
2018-04-26T08:49:00.562Z,57.04
2018-04-26T08:50:00.563Z,56.57
2018-04-26T08:51:00.560Z,56.60
2018-04-26T08:52:00.560Z,57.36
2018-04-26T08:53:00.560Z,57.84
2018-04-26T08:54:00.564Z,57.46
2018-04-26T08:55:00.591Z,56.50
2018-04-26T08:56:00.564Z,56.12
2018-04-26T08:57:00.559Z,55.07
2018-04-26T08:58:00.600Z,53.63
2018-04-26T08:59:00.552Z,53.16
2018-04-26T09:00:00.547Z,53.44
2018-04-26T09:01:00.546Z,52.87
2018-04-26T09:02:00.551Z,53.06
2018-04-26T09:03:00.561Z,53.44
2018-04-26T09:04:00.566Z,53.25
2018-04-26T09:05:00.543Z,54.02
2018-04-26T09:06:00.553Z,54.11
2018-04-26T09:07:00.558Z,53.73
2018-04-26T09:08:00.549Z,52.96
2018-04-26T09:09:00.552Z,52.87
2018-04-26T09:10:00.535Z,52.96
2018-04-26T09:11:00.588Z,52.58
2018-04-26T09:12:00.554Z,52.58
2018-04-26T09:13:00.528Z,52.58
2018-04-26T09:14:00.535Z,52.77
2018-04-26T09:15:00.538Z,51.75
2018-04-26T09:16:00.665Z,50.98
2018-04-26T09:17:00.526Z,50.98
2018-04-26T09:18:00.524Z,51.17
2018-04-26T09:19:00.551Z,51.17
2018-04-26T09:20:00.530Z,49.93
2018-04-26T09:21:00.551Z,49.84
2018-04-26T09:22:00.565Z,50.31
2018-04-26T09:23:00.521Z,50.02
2018-04-26T09:24:00.536Z,50.31
2018-04-26T09:25:00.520Z,50.52
2018-04-26T09:26:00.520Z,51.01
2018-04-26T09:27:00.569Z,51.20
2018-04-26T09:28:00.522Z,51.01
2018-04-26T09:29:00.552Z,51.17
2018-04-26T09:30:00.543Z,51.36
2018-04-26T09:31:00.520Z,51.36
2018-04-26T09:32:00.515Z,51.01
2018-04-26T09:33:00.540Z,51.07
2018-04-26T09:34:00.527Z,51.72
2018-04-26T09:35:00.542Z,52.03
2018-04-26T09:36:00.523Z,52.01
2018-04-26T09:37:00.519Z,51.93
2018-04-26T09:38:00.551Z,51.65
2018-04-26T09:39:00.511Z,51.93
2018-04-26T09:40:00.515Z,52.13
2018-04-26T09:41:00.514Z,51.75
2018-04-26T09:42:00.519Z,51.48
2018-04-26T09:43:00.512Z,50.50
2018-04-26T09:44:00.522Z,50.31
2018-04-26T09:45:00.525Z,49.84
2018-04-26T09:46:00.518Z,50.41
2018-04-26T09:47:00.513Z,50.98
2018-04-26T09:48:00.582Z,51.27
2018-04-26T09:49:00.509Z,49.45
2018-04-26T09:50:00.550Z,49.00
2018-04-26T09:51:00.511Z,48.71
2018-04-26T09:52:00.538Z,48.13
2018-04-26T09:53:00.513Z,48.33
2018-04-26T09:54:00.509Z,48.23
2018-04-26T09:55:00.505Z,47.94
2018-04-26T09:56:09.172Z,47.56
2018-04-26T09:57:53.928Z,47.66
2018-04-26T09:58:53.893Z,47.27
2018-04-26T09:59:53.897Z,47.47
2018-04-26T10:00:53.897Z,47.47
2018-04-26T10:01:53.917Z,47.94
